sensor_id;sensor_type;location;lat;lon;timestamp;pressure;altitude;pressure_sealevel;temperature;humidity
12624;BME280;6377;42.836;23.998;2023-04-06T07:37:39;95257.56;;;5.03;100.00
12624;BME280;6377;42.836;23.998;2023-04-06T07:40:08;95272.97;;;5.32;100.00
12624;BME280;6377;42.836;23.998;2023-04-06T07:42:36;95263.03;;;5.44;100.00
12624;BME280;6377;42.836;23.998;2023-04-06T07:45:03;95255.13;;;5.36;100.00
12624;BME280;6377;42.836;23.998;2023-04-06T07:47:31;95244.75;;;5.26;100.00
12624;BME280;6377;42.836;23.998;2023-04-06T07:49:58;95258.63;;;5.44;100.00
12624;BME280;6377;42.836;23.998;2023-04-06T07:52:26;95261.25;;;5.52;100.00
12624;BME280;6377;42.836;23.998;2023-04-06T07:54:55;95256.72;;;5.62;100.00
12624;BME280;6377;42.836;23.998;2023-04-06T07:57:22;95238.16;;;5.56;100.00
12624;BME280;6377;42.836;23.998;2023-04-06T07:59:49;95260.63;;;5.92;100.00
12624;BME280;6377;42.836;23.998;2023-04-06T08:02:17;95250.34;;;6.15;100.00
12624;BME280;6377;42.836;23.998;2023-04-06T08:04:44;95247.06;;;6.37;100.00
12624;BME280;6377;42.836;23.998;2023-04-06T08:07:12;95238.56;;;6.35;100.00
12624;BME280;6377;42.836;23.998;2023-04-06T08:09:39;95227.22;;;6.27;100.00
12624;BME280;6377;42.836;23.998;2023-04-06T08:12:08;95234.78;;;6.22;95.53
12624;BME280;6377;42.836;23.998;2023-04-06T08:14:35;95228.03;;;6.43;97.09
12624;BME280;6377;42.836;23.998;2023-04-06T08:17:02;95240.72;;;6.72;93.23
12624;BME280;6377;42.836;23.998;2023-04-06T08:19:29;95239.69;;;6.89;93.12
12624;BME280;6377;42.836;23.998;2023-04-06T08:21:56;95242.69;;;6.78;85.33
12624;BME280;6377;42.836;23.998;2023-04-06T08:24:24;95245.78;;;6.73;87.37
12624;BME280;6377;42.836;23.998;2023-04-06T08:26:51;95247.25;;;6.92;90.72
12624;BME280;6377;42.836;23.998;2023-04-06T08:29:20;95245.75;;;6.82;84.66
12624;BME280;6377;42.836;23.998;2023-04-06T08:31:47;95234.28;;;6.58;90.45
12624;BME280;6377;42.836;23.998;2023-04-06T08:34:14;95252.81;;;6.81;89.69
12624;BME280;6377;42.836;23.998;2023-04-06T08:36:41;95252.69;;;6.74;85.17
12624;BME280;6377;42.836;23.998;2023-04-06T08:39:09;95229.03;;;6.58;82.84
12624;BME280;6377;42.836;23.998;2023-04-06T08:41:36;95246.09;;;6.70;87.33
12624;BME280;6377;42.836;23.998;2023-04-06T08:44:03;95246.59;;;6.58;84.14
12624;BME280;6377;42.836;23.998;2023-04-06T08:46:33;95215.91;;;6.58;85.03
12624;BME280;6377;42.836;23.998;2023-04-06T08:49:02;95228.66;;;6.94;80.97
12624;BME280;6377;42.836;23.998;2023-04-06T08:51:32;95236.22;;;6.97;82.57
12624;BME280;6377;42.836;23.998;2023-04-06T08:54:00;95233.25;;;7.16;80.15
12624;BME280;6377;42.836;23.998;2023-04-06T08:56:28;95232.50;;;7.38;82.89
12624;BME280;6377;42.836;23.998;2023-04-06T08:58:55;95228.16;;;7.61;83.45
12624;BME280;6377;42.836;23.998;2023-04-06T09:01:25;95230.06;;;7.75;81.87
12624;BME280;6377;42.836;23.998;2023-04-06T09:03:56;95231.03;;;7.82;80.43
12624;BME280;6377;42.836;23.998;2023-04-06T09:06:24;95224.28;;;7.80;77.34
12624;BME280;6377;42.836;23.998;2023-04-06T09:08:53;95228.84;;;7.00;75.78
12624;BME280;6377;42.836;23.998;2023-04-06T09:11:21;95207.19;;;6.74;82.55
12624;BME280;6377;42.836;23.998;2023-04-06T09:13:49;95231.97;;;6.88;80.52
12624;BME280;6377;42.836;23.998;2023-04-06T09:16:17;95113.66;;;6.08;82.00
12624;BME280;6377;42.836;23.998;2023-04-06T09:18:45;95166.00;;;6.50;79.21
12624;BME280;6377;42.836;23.998;2023-04-06T09:21:17;95187.97;;;6.73;78.75
12624;BME280;6377;42.836;23.998;2023-04-06T09:23:45;95199.09;;;7.00;77.25
12624;BME280;6377;42.836;23.998;2023-04-06T09:26:15;95214.81;;;7.24;77.95
12624;BME280;6377;42.836;23.998;2023-04-06T09:28:47;95181.28;;;7.18;80.93
12624;BME280;6377;42.836;23.998;2023-04-06T09:31:15;95222.28;;;7.51;79.42
12624;BME280;6377;42.836;23.998;2023-04-06T09:33:45;95219.88;;;7.33;79.20
12624;BME280;6377;42.836;23.998;2023-04-06T09:36:14;95219.56;;;7.20;79.88
12624;BME280;6377;42.836;23.998;2023-04-06T09:38:52;95221.72;;;7.25;82.39
12624;BME280;6377;42.836;23.998;2023-04-06T09:41:24;95215.44;;;7.26;80.14
12624;BME280;6377;42.836;23.998;2023-04-06T09:43:52;95203.03;;;7.04;77.25
12624;BME280;6377;42.836;23.998;2023-04-06T09:46:21;95195.47;;;7.01;77.10
12624;BME280;6377;42.836;23.998;2023-04-06T09:48:51;95213.81;;;7.17;76.26
12624;BME280;6377;42.836;23.998;2023-04-06T09:51:21;95216.47;;;7.17;79.90
12624;BME280;6377;42.836;23.998;2023-04-06T09:53:52;95170.22;;;6.84;81.88
12624;BME280;6377;42.836;23.998;2023-04-06T09:56:23;95220.75;;;7.18;79.48
12624;BME280;6377;42.836;23.998;2023-04-06T09:58:55;95193.53;;;6.87;79.93
12624;BME280;6377;42.836;23.998;2023-04-06T10:01:27;95217.00;;;7.04;78.22
12624;BME280;6377;42.836;23.998;2023-04-06T10:04:06;95204.19;;;6.93;79.07
12624;BME280;6377;42.836;23.998;2023-04-06T10:06:39;95210.84;;;7.20;79.72
12624;BME280;6377;42.836;23.998;2023-04-06T10:09:07;95213.00;;;7.24;80.21
12624;BME280;6377;42.836;23.998;2023-04-06T10:11:35;95207.38;;;7.36;78.26
12624;BME280;6377;42.836;23.998;2023-04-06T10:14:02;95207.97;;;7.54;79.41
12624;BME280;6377;42.836;23.998;2023-04-06T10:16:30;95209.53;;;7.71;81.21
12624;BME280;6377;42.836;23.998;2023-04-06T10:19:01;95207.25;;;7.68;73.58
12624;BME280;6377;42.836;23.998;2023-04-06T10:21:31;95177.78;;;7.33;75.07
12624;BME280;6377;42.836;23.998;2023-04-06T10:24:01;95204.50;;;7.53;74.07
12624;BME280;6377;42.836;23.998;2023-04-06T10:26:29;95206.94;;;7.55;76.46
12624;BME280;6377;42.836;23.998;2023-04-06T10:29:02;95205.09;;;7.63;80.29
12624;BME280;6377;42.836;23.998;2023-04-06T10:31:30;95197.00;;;7.73;78.88
12624;BME280;6377;42.836;23.998;2023-04-06T10:33:58;95196.25;;;7.95;79.62
12624;BME280;6377;42.836;23.998;2023-04-06T10:36:27;95201.84;;;7.92;75.87
12624;BME280;6377;42.836;23.998;2023-04-06T10:38:56;95141.75;;;7.34;75.58
12624;BME280;6377;42.836;23.998;2023-04-06T10:41:32;95189.22;;;7.49;77.15
12624;BME280;6377;42.836;23.998;2023-04-06T10:44:00;95165.91;;;7.38;78.96
12624;BME280;6377;42.836;23.998;2023-04-06T10:46:29;95192.97;;;7.62;80.06
12624;BME280;6377;42.836;23.998;2023-04-06T10:48:56;95167.28;;;7.33;78.22
12624;BME280;6377;42.836;23.998;2023-04-06T10:51:26;95188.91;;;7.44;77.04
12624;BME280;6377;42.836;23.998;2023-04-06T10:53:54;95145.94;;;7.20;79.72
12624;BME280;6377;42.836;23.998;2023-04-06T10:56:23;95127.22;;;7.15;80.24
12624;BME280;6377;42.836;23.998;2023-04-06T10:58:54;95147.78;;;7.12;80.96
12624;BME280;6377;42.836;23.998;2023-04-06T11:01:23;95191.22;;;7.47;80.08
12624;BME280;6377;42.836;23.998;2023-04-06T11:03:54;95171.72;;;7.33;80.17
12624;BME280;6377;42.836;23.998;2023-04-06T11:06:25;95156.59;;;7.27;80.28
12624;BME280;6377;42.836;23.998;2023-04-06T11:08:55;95182.03;;;7.34;82.25
12624;BME280;6377;42.836;23.998;2023-04-06T11:11:23;95187.53;;;7.17;81.47
12624;BME280;6377;42.836;23.998;2023-04-06T11:13:54;95194.13;;;7.05;82.15
12624;BME280;6377;42.836;23.998;2023-04-06T11:16:22;95183.63;;;7.05;85.30
12624;BME280;6377;42.836;23.998;2023-04-06T11:18:51;95186.75;;;7.00;82.61
12624;BME280;6377;42.836;23.998;2023-04-06T11:21:20;95186.88;;;7.15;82.86
12624;BME280;6377;42.836;23.998;2023-04-06T11:23:47;95189.44;;;7.31;78.98
12624;BME280;6377;42.836;23.998;2023-04-06T11:26:15;95168.63;;;7.21;80.65
12624;BME280;6377;42.836;23.998;2023-04-06T11:28:42;95184.81;;;7.41;77.10
12624;BME280;6377;42.836;23.998;2023-04-06T11:31:11;95172.69;;;7.32;79.41
12624;BME280;6377;42.836;23.998;2023-04-06T11:33:38;95189.00;;;7.27;75.54
12624;BME280;6377;42.836;23.998;2023-04-06T11:36:06;95170.69;;;7.34;76.82
12624;BME280;6377;42.836;23.998;2023-04-06T11:38:34;95185.34;;;7.37;74.46
12624;BME280;6377;42.836;23.998;2023-04-06T11:41:05;95170.59;;;7.27;75.56
12624;BME280;6377;42.836;23.998;2023-04-06T11:43:33;95147.19;;;6.94;74.24
12624;BME280;6377;42.836;23.998;2023-04-06T11:46:01;95183.09;;;7.17;76.27
12624;BME280;6377;42.836;23.998;2023-04-06T11:48:30;95162.25;;;7.16;75.20
12624;BME280;6377;42.836;23.998;2023-04-06T11:50:58;95170.69;;;7.34;75.81
12624;BME280;6377;42.836;23.998;2023-04-06T11:53:27;95178.88;;;7.47;74.61
12624;BME280;6377;42.836;23.998;2023-04-06T11:55:55;95167.03;;;7.43;71.93
12624;BME280;6377;42.836;23.998;2023-04-06T11:58:22;95174.69;;;7.61;73.30
12624;BME280;6377;42.836;23.998;2023-04-06T12:00:50;95117.50;;;7.24;75.54
12624;BME280;6377;42.836;23.998;2023-04-06T12:03:17;95159.47;;;7.48;74.02
12624;BME280;6377;42.836;23.998;2023-04-06T12:05:45;95167.13;;;7.58;74.90
12624;BME280;6377;42.836;23.998;2023-04-06T12:08:13;95178.53;;;7.50;71.82
12624;BME280;6377;42.836;23.998;2023-04-06T12:10:40;95102.59;;;7.08;76.39
12624;BME280;6377;42.836;23.998;2023-04-06T12:13:07;95144.38;;;7.42;75.40
12624;BME280;6377;42.836;23.998;2023-04-06T12:15:34;95177.75;;;7.72;72.44
12624;BME280;6377;42.836;23.998;2023-04-06T12:18:01;95130.22;;;7.43;73.53
12624;BME280;6377;42.836;23.998;2023-04-06T12:20:29;95179.13;;;7.68;73.00
12624;BME280;6377;42.836;23.998;2023-04-06T12:22:58;95179.16;;;7.52;71.87
12624;BME280;6377;42.836;23.998;2023-04-06T12:25:25;95180.97;;;7.60;72.61
12624;BME280;6377;42.836;23.998;2023-04-06T12:27:53;95151.59;;;7.40;71.63
12624;BME280;6377;42.836;23.998;2023-04-06T12:30:20;95149.53;;;7.19;71.46
12624;BME280;6377;42.836;23.998;2023-04-06T12:32:48;95122.78;;;7.16;73.75
12624;BME280;6377;42.836;23.998;2023-04-06T12:35:15;95173.53;;;7.63;75.84
12624;BME280;6377;42.836;23.998;2023-04-06T12:37:42;95173.88;;;7.60;73.67
12624;BME280;6377;42.836;23.998;2023-04-06T12:40:11;95169.22;;;7.70;75.32
12624;BME280;6377;42.836;23.998;2023-04-06T12:42:40;95176.81;;;7.65;72.49
12624;BME280;6377;42.836;23.998;2023-04-06T12:45:08;95174.78;;;7.75;74.06
12624;BME280;6377;42.836;23.998;2023-04-06T12:47:35;95169.56;;;7.67;73.25
12624;BME280;6377;42.836;23.998;2023-04-06T12:50:04;95129.19;;;7.52;72.93
12624;BME280;6377;42.836;23.998;2023-04-06T12:52:33;95167.19;;;7.80;75.31
12624;BME280;6377;42.836;23.998;2023-04-06T12:55:02;95167.56;;;7.77;72.77
12624;BME280;6377;42.836;23.998;2023-04-06T12:57:32;95164.06;;;7.54;74.63
12624;BME280;6377;42.836;23.998;2023-04-06T12:59:59;95154.56;;;7.45;74.49
12624;BME280;6377;42.836;23.998;2023-04-06T13:02:26;95161.22;;;7.56;73.29
12624;BME280;6377;42.836;23.998;2023-04-06T13:04:53;95156.16;;;7.54;72.84
12624;BME280;6377;42.836;23.998;2023-04-06T13:07:21;95158.66;;;7.48;74.17
12624;BME280;6377;42.836;23.998;2023-04-06T13:09:48;95159.25;;;7.58;76.14
12624;BME280;6377;42.836;23.998;2023-04-06T13:12:16;95158.56;;;7.64;74.32
12624;BME280;6377;42.836;23.998;2023-04-06T13:14:45;95150.78;;;7.70;73.25
12624;BME280;6377;42.836;23.998;2023-04-06T13:17:16;95093.03;;;7.46;74.91
12624;BME280;6377;42.836;23.998;2023-04-06T13:19:43;95095.78;;;7.53;75.14
12624;BME280;6377;42.836;23.998;2023-04-06T13:22:11;95147.19;;;7.94;74.36
12624;BME280;6377;42.836;23.998;2023-04-06T13:24:38;95145.38;;;7.95;73.76
12624;BME280;6377;42.836;23.998;2023-04-06T13:27:05;95141.09;;;7.94;74.29
12624;BME280;6377;42.836;23.998;2023-04-06T13:29:32;95139.94;;;7.96;73.74
12624;BME280;6377;42.836;23.998;2023-04-06T13:32:01;95122.16;;;7.98;73.90
12624;BME280;6377;42.836;23.998;2023-04-06T13:34:28;95145.09;;;8.12;74.15
12624;BME280;6377;42.836;23.998;2023-04-06T13:36:56;95132.22;;;8.17;74.18
12624;BME280;6377;42.836;23.998;2023-04-06T13:39:23;95135.13;;;8.22;73.62
12624;BME280;6377;42.836;23.998;2023-04-06T13:41:52;95139.00;;;8.12;72.22
12624;BME280;6377;42.836;23.998;2023-04-06T13:44:21;95138.59;;;8.00;73.42
12624;BME280;6377;42.836;23.998;2023-04-06T13:46:48;95134.19;;;7.93;73.53
12624;BME280;6377;42.836;23.998;2023-04-06T13:49:17;95129.03;;;7.99;74.38
12624;BME280;6377;42.836;23.998;2023-04-06T13:51:44;95079.94;;;7.61;74.64
12624;BME280;6377;42.836;23.998;2023-04-06T13:54:11;95130.84;;;7.99;76.77
12624;BME280;6377;42.836;23.998;2023-04-06T13:56:38;95132.97;;;8.03;76.05
12624;BME280;6377;42.836;23.998;2023-04-06T13:59:06;95128.47;;;8.12;75.21
12624;BME280;6377;42.836;23.998;2023-04-06T14:01:33;95132.75;;;8.13;75.43
12624;BME280;6377;42.836;23.998;2023-04-06T14:04:00;95148.38;;;8.14;74.83
12624;BME280;6377;42.836;23.998;2023-04-06T14:06:29;95141.28;;;8.15;67.11
12624;BME280;6377;42.836;23.998;2023-04-06T14:08:56;95149.63;;;7.96;60.55
12624;BME280;6377;42.836;23.998;2023-04-06T14:11:24;95132.03;;;7.73;62.09
12624;BME280;6377;42.836;23.998;2023-04-06T14:13:51;95118.50;;;7.76;61.11
12624;BME280;6377;42.836;23.998;2023-04-06T14:16:19;95135.00;;;7.70;58.68
12624;BME280;6377;42.836;23.998;2023-04-06T14:18:48;95114.75;;;7.48;59.62
12624;BME280;6377;42.836;23.998;2023-04-06T14:21:16;95132.66;;;7.75;61.27
12624;BME280;6377;42.836;23.998;2023-04-06T14:23:45;95135.78;;;7.79;61.35
12624;BME280;6377;42.836;23.998;2023-04-06T14:26:13;95131.91;;;7.67;60.18
12624;BME280;6377;42.836;23.998;2023-04-06T14:28:41;95118.97;;;7.57;62.39
12624;BME280;6377;42.836;23.998;2023-04-06T14:31:12;95123.84;;;7.68;61.53
12624;BME280;6377;42.836;23.998;2023-04-06T14:33:41;95127.38;;;7.83;59.74
12624;BME280;6377;42.836;23.998;2023-04-06T14:36:08;95065.56;;;7.49;58.15
12624;BME280;6377;42.836;23.998;2023-04-06T14:38:36;95133.00;;;7.72;57.56
12624;BME280;6377;42.836;23.998;2023-04-06T14:41:14;95131.53;;;7.70;56.30
12624;BME280;6377;42.836;23.998;2023-04-06T14:43:42;95132.78;;;7.59;55.09
12624;BME280;6377;42.836;23.998;2023-04-06T14:46:09;95113.34;;;7.29;55.06
12624;BME280;6377;42.836;23.998;2023-04-06T14:48:36;95135.13;;;7.15;55.72
12624;BME280;6377;42.836;23.998;2023-04-06T14:51:04;95131.91;;;7.36;56.22
12624;BME280;6377;42.836;23.998;2023-04-06T14:53:31;95129.13;;;7.60;54.87
12624;BME280;6377;42.836;23.998;2023-04-06T14:55:58;95131.75;;;7.91;54.01
12624;BME280;6377;42.836;23.998;2023-04-06T14:58:27;95138.25;;;8.03;51.54
12624;BME280;6377;42.836;23.998;2023-04-06T15:00:55;95109.09;;;8.05;50.33
12624;BME280;6377;42.836;23.998;2023-04-06T15:03:23;95129.88;;;8.45;49.70
12624;BME280;6377;42.836;23.998;2023-04-06T15:05:51;95117.03;;;8.19;47.94
12624;BME280;6377;42.836;23.998;2023-04-06T15:08:19;95125.72;;;8.51;49.75
12624;BME280;6377;42.836;23.998;2023-04-06T15:10:47;95127.06;;;8.61;50.77
12624;BME280;6377;42.836;23.998;2023-04-06T15:13:14;95132.13;;;8.85;48.05
12624;BME280;6377;42.836;23.998;2023-04-06T15:15:44;95104.75;;;8.86;48.05
12624;BME280;6377;42.836;23.998;2023-04-06T15:18:12;95096.84;;;8.72;46.08
12624;BME280;6377;42.836;23.998;2023-04-06T15:20:39;95135.03;;;9.05;45.31
12624;BME280;6377;42.836;23.998;2023-04-06T15:23:07;95096.66;;;8.88;45.37
12624;BME280;6377;42.836;23.998;2023-04-06T15:25:34;95105.03;;;8.77;48.06
12624;BME280;6377;42.836;23.998;2023-04-06T15:28:01;95138.47;;;8.91;47.42
12624;BME280;6377;42.836;23.998;2023-04-06T15:30:28;95121.72;;;8.84;47.93
12624;BME280;6377;42.836;23.998;2023-04-06T15:32:58;95144.03;;;8.96;46.96
12624;BME280;6377;42.836;23.998;2023-04-06T15:35:26;95139.47;;;8.75;48.45
12624;BME280;6377;42.836;23.998;2023-04-06T15:37:54;95152.69;;;8.53;48.54
12624;BME280;6377;42.836;23.998;2023-04-06T15:40:21;95147.88;;;8.56;48.08
12624;BME280;6377;42.836;23.998;2023-04-06T15:42:49;95157.16;;;8.67;48.67
12624;BME280;6377;42.836;23.998;2023-04-06T15:45:16;95158.91;;;8.60;47.74
12624;BME280;6377;42.836;23.998;2023-04-06T15:47:44;95152.53;;;8.54;47.18
12624;BME280;6377;42.836;23.998;2023-04-06T15:50:13;95157.56;;;8.41;47.57
12624;BME280;6377;42.836;23.998;2023-04-06T15:52:40;95164.81;;;8.16;48.98
12624;BME280;6377;42.836;23.998;2023-04-06T15:55:17;95164.38;;;8.05;49.20
12624;BME280;6377;42.836;23.998;2023-04-06T15:57:50;95169.72;;;7.97;50.67
12624;BME280;6377;42.836;23.998;2023-04-06T16:00:18;95152.41;;;8.02;51.83
12624;BME280;6377;42.836;23.998;2023-04-06T16:02:45;95172.16;;;8.29;52.16
12624;BME280;6377;42.836;23.998;2023-04-06T16:05:13;95156.41;;;7.98;51.56
12624;BME280;6377;42.836;23.998;2023-04-06T16:07:41;94996.22;;;6.57;52.64
12624;BME280;6377;42.836;23.998;2023-04-06T16:10:09;95008.06;;;6.45;52.62
12624;BME280;6377;42.836;23.998;2023-04-06T16:12:36;95179.84;;;7.46;52.73
12624;BME280;6377;42.836;23.998;2023-04-06T16:15:07;95145.19;;;7.04;52.68
12624;BME280;6377;42.836;23.998;2023-04-06T16:17:35;95187.03;;;7.21;54.16
12624;BME280;6377;42.836;23.998;2023-04-06T16:20:02;95187.88;;;7.14;53.54
12624;BME280;6377;42.836;23.998;2023-04-06T16:22:31;95183.03;;;6.87;53.46
12624;BME280;6377;42.836;23.998;2023-04-06T16:24:58;95172.34;;;6.80;53.96
12624;BME280;6377;42.836;23.998;2023-04-06T16:27:25;95183.69;;;6.72;55.25
12624;BME280;6377;42.836;23.998;2023-04-06T16:29:53;95202.41;;;6.86;55.76
12624;BME280;6377;42.836;23.998;2023-04-06T16:32:20;95211.44;;;6.83;56.37
12624;BME280;6377;42.836;23.998;2023-04-06T16:34:47;95189.41;;;6.84;56.15
12624;BME280;6377;42.836;23.998;2023-04-06T16:37:15;95163.72;;;6.39;56.34
12624;BME280;6377;42.836;23.998;2023-04-06T16:39:43;95190.44;;;6.59;56.56
12624;BME280;6377;42.836;23.998;2023-04-06T16:42:11;95201.28;;;6.64;58.18
12624;BME280;6377;42.836;23.998;2023-04-06T16:44:39;95205.56;;;6.57;60.15
12624;BME280;6377;42.836;23.998;2023-04-06T16:47:06;95149.41;;;6.26;59.32
12624;BME280;6377;42.836;23.998;2023-04-06T16:49:34;95215.59;;;6.45;59.70
12624;BME280;6377;42.836;23.998;2023-04-06T16:52:04;95155.31;;;5.95;60.90
12624;BME280;6377;42.836;23.998;2023-04-06T16:54:31;95202.75;;;6.34;62.38
12624;BME280;6377;42.836;23.998;2023-04-06T16:57:01;95228.19;;;6.26;63.17
12624;BME280;6377;42.836;23.998;2023-04-06T16:59:30;95219.84;;;6.30;63.85
12624;BME280;6377;42.836;23.998;2023-04-06T17:01:57;95183.38;;;6.03;63.31
12624;BME280;6377;42.836;23.998;2023-04-06T17:04:24;95242.66;;;6.22;63.45
12624;BME280;6377;42.836;23.998;2023-04-06T17:06:51;95237.72;;;6.35;63.78
12624;BME280;6377;42.836;23.998;2023-04-06T17:09:18;95239.03;;;6.22;63.68
12624;BME280;6377;42.836;23.998;2023-04-06T17:11:46;95281.53;;;6.26;65.07
12624;BME280;6377;42.836;23.998;2023-04-06T17:14:15;95008.50;;;4.71;66.22
12624;BME280;6377;42.836;23.998;2023-04-06T17:16:44;95193.66;;;5.80;65.73
12624;BME280;6377;42.836;23.998;2023-04-06T17:19:14;95299.78;;;6.28;65.04
12624;BME280;6377;42.836;23.998;2023-04-06T17:21:41;95225.88;;;5.98;65.30
12624;BME280;6377;42.836;23.998;2023-04-06T17:24:09;95307.78;;;6.18;63.98
12624;BME280;6377;42.836;23.998;2023-04-06T17:26:36;95294.53;;;6.28;66.99
12624;BME280;6377;42.836;23.998;2023-04-06T17:29:17;95178.28;;;5.43;66.61
12624;BME280;6377;42.836;23.998;2023-04-06T17:31:45;95164.38;;;5.43;66.95
12624;BME280;6377;42.836;23.998;2023-04-06T17:34:12;95177.91;;;5.80;67.77
12624;BME280;6377;42.836;23.998;2023-04-06T17:36:43;95239.00;;;6.06;68.41
12624;BME280;6377;42.836;23.998;2023-04-06T17:39:22;95098.56;;;5.20;66.27
12624;BME280;6377;42.836;23.998;2023-04-06T17:41:53;95038.72;;;4.99;67.30
12624;BME280;6377;42.836;23.998;2023-04-06T17:44:26;95292.91;;;6.59;66.81
12624;BME280;6377;42.836;23.998;2023-04-06T17:46:59;95072.66;;;5.01;66.48
